sensor_id;sensor_type;location;lat;lon;timestamp;pressure;altitude;pressure_sealevel;temperature;humidity
15694;BME280;7947;48.834;9.132;2023-06-14T00:01:54;97682.81;;;16.45;52.73
15694;BME280;7947;48.834;9.132;2023-06-14T00:04:57;97679.16;;;16.41;53.07
15694;BME280;7947;48.834;9.132;2023-06-14T00:08:01;97688.38;;;16.40;53.36
15694;BME280;7947;48.834;9.132;2023-06-14T00:11:05;97690.47;;;16.43;52.88
15694;BME280;7947;48.834;9.132;2023-06-14T00:14:07;97694.75;;;16.44;53.08
15694;BME280;7947;48.834;9.132;2023-06-14T00:17:12;97698.25;;;16.44;52.84
15694;BME280;7947;48.834;9.132;2023-06-14T00:20:18;97700.00;;;16.40;53.78
15694;BME280;7947;48.834;9.132;2023-06-14T00:23:21;97703.72;;;16.27;54.09
15694;BME280;7947;48.834;9.132;2023-06-14T00:26:24;97693.50;;;16.33;53.02
15694;BME280;7947;48.834;9.132;2023-06-14T00:29:27;97693.38;;;16.20;53.06
15694;BME280;7947;48.834;9.132;2023-06-14T00:32:32;97708.69;;;16.08;53.77
15694;BME280;7947;48.834;9.132;2023-06-14T00:35:35;97705.81;;;16.04;53.89
15694;BME280;7947;48.834;9.132;2023-06-14T00:38:37;97696.44;;;16.02;53.19
15694;BME280;7947;48.834;9.132;2023-06-14T00:41:40;97695.66;;;15.84;53.65
15694;BME280;7947;48.834;9.132;2023-06-14T00:44:43;97691.34;;;15.75;54.47
15694;BME280;7947;48.834;9.132;2023-06-14T00:47:47;97698.34;;;15.67;55.20
15694;BME280;7947;48.834;9.132;2023-06-14T00:50:54;97698.66;;;15.74;54.86
15694;BME280;7947;48.834;9.132;2023-06-14T00:53:57;97689.75;;;15.74;54.70
15694;BME280;7947;48.834;9.132;2023-06-14T00:57:00;97688.81;;;15.70;55.10
15694;BME280;7947;48.834;9.132;2023-06-14T01:00:04;97683.56;;;15.73;55.48
15694;BME280;7947;48.834;9.132;2023-06-14T01:03:11;97694.38;;;15.56;55.98
15694;BME280;7947;48.834;9.132;2023-06-14T01:06:22;97694.19;;;15.53;55.89
15694;BME280;7947;48.834;9.132;2023-06-14T01:09:36;97698.63;;;15.49;56.42
15694;BME280;7947;48.834;9.132;2023-06-14T01:12:58;97698.81;;;15.44;56.53
15694;BME280;7947;48.834;9.132;2023-06-14T01:16:01;97700.09;;;15.46;56.69
15694;BME280;7947;48.834;9.132;2023-06-14T01:19:09;97706.75;;;15.49;55.95
15694;BME280;7947;48.834;9.132;2023-06-14T01:22:15;97706.25;;;15.47;56.53
15694;BME280;7947;48.834;9.132;2023-06-14T01:25:20;97703.53;;;15.38;55.95
15694;BME280;7947;48.834;9.132;2023-06-14T01:28:24;97706.22;;;15.29;56.74
15694;BME280;7947;48.834;9.132;2023-06-14T01:31:28;97702.06;;;15.23;56.13
15694;BME280;7947;48.834;9.132;2023-06-14T01:34:41;97705.72;;;15.19;56.74
15694;BME280;7947;48.834;9.132;2023-06-14T01:37:46;97706.97;;;15.13;57.73
15694;BME280;7947;48.834;9.132;2023-06-14T01:40:53;97706.19;;;15.12;57.16
15694;BME280;7947;48.834;9.132;2023-06-14T01:43:57;97697.91;;;15.09;57.32
15694;BME280;7947;48.834;9.132;2023-06-14T01:47:00;97704.25;;;15.04;57.95
15694;BME280;7947;48.834;9.132;2023-06-14T01:50:04;97707.59;;;15.01;57.89
15694;BME280;7947;48.834;9.132;2023-06-14T01:53:08;97705.06;;;15.05;57.86
15694;BME280;7947;48.834;9.132;2023-06-14T01:56:12;97701.69;;;14.99;58.13
15694;BME280;7947;48.834;9.132;2023-06-14T01:59:15;97705.81;;;14.88;58.46
15694;BME280;7947;48.834;9.132;2023-06-14T02:02:18;97701.34;;;14.84;58.71
15694;BME280;7947;48.834;9.132;2023-06-14T02:05:21;97708.94;;;14.82;58.80
15694;BME280;7947;48.834;9.132;2023-06-14T02:08:24;97706.91;;;14.87;59.24
15694;BME280;7947;48.834;9.132;2023-06-14T02:11:28;97707.66;;;14.79;59.55
15694;BME280;7947;48.834;9.132;2023-06-14T02:14:31;97710.19;;;14.76;60.12
15694;BME280;7947;48.834;9.132;2023-06-14T02:17:35;97717.00;;;14.73;59.37
15694;BME280;7947;48.834;9.132;2023-06-14T02:20:39;97716.50;;;14.71;59.72
15694;BME280;7947;48.834;9.132;2023-06-14T02:23:41;97720.31;;;14.70;59.33
15694;BME280;7947;48.834;9.132;2023-06-14T02:26:46;97714.09;;;14.61;59.52
15694;BME280;7947;48.834;9.132;2023-06-14T02:29:48;97712.81;;;14.59;59.76
15694;BME280;7947;48.834;9.132;2023-06-14T02:32:51;97710.13;;;14.59;60.75
15694;BME280;7947;48.834;9.132;2023-06-14T02:35:54;97704.56;;;14.55;60.11
15694;BME280;7947;48.834;9.132;2023-06-14T02:38:57;97708.97;;;14.51;60.53
15694;BME280;7947;48.834;9.132;2023-06-14T02:42:02;97707.81;;;14.43;60.82
15694;BME280;7947;48.834;9.132;2023-06-14T02:45:06;97705.13;;;14.43;60.96
15694;BME280;7947;48.834;9.132;2023-06-14T02:48:09;97704.25;;;14.34;60.65
15694;BME280;7947;48.834;9.132;2023-06-14T02:51:13;97707.59;;;14.31;60.68
15694;BME280;7947;48.834;9.132;2023-06-14T02:54:16;97712.41;;;14.21;60.92
15694;BME280;7947;48.834;9.132;2023-06-14T02:57:20;97708.13;;;14.20;61.07
15694;BME280;7947;48.834;9.132;2023-06-14T03:00:23;97710.00;;;14.19;61.53
15694;BME280;7947;48.834;9.132;2023-06-14T03:03:25;97721.44;;;14.16;61.73
15694;BME280;7947;48.834;9.132;2023-06-14T03:06:28;97713.66;;;14.15;61.37
15694;BME280;7947;48.834;9.132;2023-06-14T03:09:32;97712.53;;;14.16;62.13
15694;BME280;7947;48.834;9.132;2023-06-14T03:12:36;97713.75;;;14.10;61.94
15694;BME280;7947;48.834;9.132;2023-06-14T03:15:39;97717.25;;;14.10;62.62
15694;BME280;7947;48.834;9.132;2023-06-14T03:18:42;97718.84;;;14.11;62.05
15694;BME280;7947;48.834;9.132;2023-06-14T03:21:45;97720.28;;;14.09;62.18
15694;BME280;7947;48.834;9.132;2023-06-14T03:24:49;97727.88;;;14.07;62.96
15694;BME280;7947;48.834;9.132;2023-06-14T03:27:55;97728.34;;;14.09;62.73
15694;BME280;7947;48.834;9.132;2023-06-14T03:30:57;97729.75;;;14.06;62.47
15694;BME280;7947;48.834;9.132;2023-06-14T03:34:00;97739.25;;;14.04;62.66
15694;BME280;7947;48.834;9.132;2023-06-14T03:37:04;97738.41;;;13.95;62.68
15694;BME280;7947;48.834;9.132;2023-06-14T03:40:07;97739.78;;;13.92;63.07
15694;BME280;7947;48.834;9.132;2023-06-14T03:43:11;97746.00;;;13.93;63.42
15694;BME280;7947;48.834;9.132;2023-06-14T03:46:14;97753.41;;;13.87;63.55
15694;BME280;7947;48.834;9.132;2023-06-14T03:49:17;97758.31;;;13.85;63.70
15694;BME280;7947;48.834;9.132;2023-06-14T03:52:20;97759.09;;;13.86;64.37
15694;BME280;7947;48.834;9.132;2023-06-14T03:55:23;97768.28;;;13.85;64.18
15694;BME280;7947;48.834;9.132;2023-06-14T03:58:48;97760.38;;;13.88;64.87
15694;BME280;7947;48.834;9.132;2023-06-14T04:01:50;97764.25;;;13.96;64.63
15694;BME280;7947;48.834;9.132;2023-06-14T04:04:54;97758.25;;;13.99;64.52
15694;BME280;7947;48.834;9.132;2023-06-14T04:07:57;97771.75;;;13.99;64.44
15694;BME280;7947;48.834;9.132;2023-06-14T04:11:02;97771.91;;;14.02;65.26
15694;BME280;7947;48.834;9.132;2023-06-14T04:14:06;97774.94;;;14.01;65.04
15694;BME280;7947;48.834;9.132;2023-06-14T04:17:09;97777.50;;;14.06;65.25
15694;BME280;7947;48.834;9.132;2023-06-14T04:20:12;97777.50;;;14.06;66.20
15694;BME280;7947;48.834;9.132;2023-06-14T04:23:16;97788.94;;;14.11;65.92
15694;BME280;7947;48.834;9.132;2023-06-14T04:26:20;97785.84;;;14.18;66.41
15694;BME280;7947;48.834;9.132;2023-06-14T04:29:29;97786.19;;;14.25;65.86
15694;BME280;7947;48.834;9.132;2023-06-14T04:32:33;97782.81;;;14.33;64.25
15694;BME280;7947;48.834;9.132;2023-06-14T04:35:40;97789.03;;;14.42;63.27
15694;BME280;7947;48.834;9.132;2023-06-14T04:38:43;97792.94;;;14.50;62.25
15694;BME280;7947;48.834;9.132;2023-06-14T04:41:46;97787.75;;;14.62;62.37
15694;BME280;7947;48.834;9.132;2023-06-14T04:44:51;97782.25;;;14.75;61.51
15694;BME280;7947;48.834;9.132;2023-06-14T04:47:58;97788.88;;;14.91;60.53
15694;BME280;7947;48.834;9.132;2023-06-14T04:51:01;97801.78;;;15.03;60.56
15694;BME280;7947;48.834;9.132;2023-06-14T04:54:05;97801.34;;;15.09;61.68
15694;BME280;7947;48.834;9.132;2023-06-14T04:57:11;97805.19;;;15.17;62.91
15694;BME280;7947;48.834;9.132;2023-06-14T05:00:17;97805.03;;;15.22;63.41
15694;BME280;7947;48.834;9.132;2023-06-14T05:03:20;97818.91;;;15.29;64.04
15694;BME280;7947;48.834;9.132;2023-06-14T05:06:23;97820.66;;;15.33;64.51
15694;BME280;7947;48.834;9.132;2023-06-14T05:09:26;97820.41;;;15.44;65.76
15694;BME280;7947;48.834;9.132;2023-06-14T05:12:29;97818.03;;;15.51;65.07
15694;BME280;7947;48.834;9.132;2023-06-14T05:15:33;97819.31;;;15.53;64.71
15694;BME280;7947;48.834;9.132;2023-06-14T05:18:36;97816.66;;;15.70;65.98
15694;BME280;7947;48.834;9.132;2023-06-14T05:21:39;97811.75;;;15.81;64.36
15694;BME280;7947;48.834;9.132;2023-06-14T05:24:44;97813.53;;;15.94;61.85
15694;BME280;7947;48.834;9.132;2023-06-14T05:27:47;97817.81;;;16.03;58.49
15694;BME280;7947;48.834;9.132;2023-06-14T05:30:52;97816.88;;;16.16;57.90
15694;BME280;7947;48.834;9.132;2023-06-14T05:33:55;97822.13;;;16.30;58.82
15694;BME280;7947;48.834;9.132;2023-06-14T05:36:57;97828.50;;;16.43;58.88
15694;BME280;7947;48.834;9.132;2023-06-14T05:40:00;97822.91;;;16.48;57.66
15694;BME280;7947;48.834;9.132;2023-06-14T05:43:06;97826.13;;;16.58;57.63
15694;BME280;7947;48.834;9.132;2023-06-14T05:46:10;97828.66;;;16.72;57.87
15694;BME280;7947;48.834;9.132;2023-06-14T05:49:13;97829.56;;;16.84;57.43
15694;BME280;7947;48.834;9.132;2023-06-14T05:52:16;97816.63;;;16.98;57.09
15694;BME280;7947;48.834;9.132;2023-06-14T05:55:19;97825.84;;;17.14;57.15
15694;BME280;7947;48.834;9.132;2023-06-14T05:58:22;97822.13;;;17.28;55.68
15694;BME280;7947;48.834;9.132;2023-06-14T06:01:26;97822.22;;;17.40;55.72
15694;BME280;7947;48.834;9.132;2023-06-14T06:04:29;97815.81;;;17.53;55.62
15694;BME280;7947;48.834;9.132;2023-06-14T06:07:32;97824.53;;;17.67;55.88
15694;BME280;7947;48.834;9.132;2023-06-14T06:10:38;97823.28;;;17.85;56.12
15694;BME280;7947;48.834;9.132;2023-06-14T06:13:41;97819.53;;;17.98;54.56
15694;BME280;7947;48.834;9.132;2023-06-14T06:16:45;97836.16;;;18.17;53.10
15694;BME280;7947;48.834;9.132;2023-06-14T06:19:48;97841.78;;;18.33;53.26
15694;BME280;7947;48.834;9.132;2023-06-14T06:22:51;97838.84;;;18.46;52.85
15694;BME280;7947;48.834;9.132;2023-06-14T06:25:54;97834.34;;;18.62;53.37
15694;BME280;7947;48.834;9.132;2023-06-14T06:28:57;97841.75;;;18.74;51.82
15694;BME280;7947;48.834;9.132;2023-06-14T06:32:01;97834.00;;;18.84;50.28
15694;BME280;7947;48.834;9.132;2023-06-14T06:35:05;97839.13;;;18.98;50.28
15694;BME280;7947;48.834;9.132;2023-06-14T06:38:10;97842.00;;;19.14;47.41
15694;BME280;7947;48.834;9.132;2023-06-14T06:41:13;97833.19;;;19.29;47.41
15694;BME280;7947;48.834;9.132;2023-06-14T06:44:16;97829.81;;;19.44;47.95
15694;BME280;7947;48.834;9.132;2023-06-14T06:47:20;97835.03;;;19.61;46.32
15694;BME280;7947;48.834;9.132;2023-06-14T06:50:23;97842.53;;;19.76;46.65
15694;BME280;7947;48.834;9.132;2023-06-14T06:53:26;97846.69;;;19.98;46.37
15694;BME280;7947;48.834;9.132;2023-06-14T06:56:43;97856.34;;;20.19;46.42
15694;BME280;7947;48.834;9.132;2023-06-14T06:59:46;97859.25;;;20.38;46.02
15694;BME280;7947;48.834;9.132;2023-06-14T07:02:50;97857.38;;;20.54;45.48
15694;BME280;7947;48.834;9.132;2023-06-14T07:05:54;97859.91;;;20.75;45.64
15694;BME280;7947;48.834;9.132;2023-06-14T07:08:57;97866.22;;;20.91;44.64
15694;BME280;7947;48.834;9.132;2023-06-14T07:12:03;97869.34;;;21.05;45.71
15694;BME280;7947;48.834;9.132;2023-06-14T07:15:07;97867.09;;;21.23;44.22
15694;BME280;7947;48.834;9.132;2023-06-14T07:18:12;97864.47;;;21.42;44.63
15694;BME280;7947;48.834;9.132;2023-06-14T07:21:17;97870.31;;;21.56;43.82
15694;BME280;7947;48.834;9.132;2023-06-14T07:24:20;97864.41;;;21.70;43.37
15694;BME280;7947;48.834;9.132;2023-06-14T07:27:23;97871.09;;;21.88;42.15
15694;BME280;7947;48.834;9.132;2023-06-14T07:30:26;97876.97;;;22.05;42.42
15694;BME280;7947;48.834;9.132;2023-06-14T07:33:32;97880.53;;;22.25;40.43
15694;BME280;7947;48.834;9.132;2023-06-14T07:36:36;97885.38;;;22.31;40.46
15694;BME280;7947;48.834;9.132;2023-06-14T07:39:39;97877.63;;;22.33;40.27
15694;BME280;7947;48.834;9.132;2023-06-14T07:42:42;97894.41;;;22.51;40.33
15694;BME280;7947;48.834;9.132;2023-06-14T07:45:45;97890.25;;;22.41;40.12
15694;BME280;7947;48.834;9.132;2023-06-14T07:49:07;97894.72;;;22.65;39.83
15694;BME280;7947;48.834;9.132;2023-06-14T07:52:10;97895.75;;;22.76;39.28
15694;BME280;7947;48.834;9.132;2023-06-14T07:55:15;97895.16;;;22.86;39.26
15694;BME280;7947;48.834;9.132;2023-06-14T07:58:18;97891.03;;;22.96;39.76
15694;BME280;7947;48.834;9.132;2023-06-14T08:01:21;97892.22;;;22.95;39.18
15694;BME280;7947;48.834;9.132;2023-06-14T08:04:27;97888.41;;;22.99;38.75
15694;BME280;7947;48.834;9.132;2023-06-14T08:07:30;97885.56;;;23.15;37.77
15694;BME280;7947;48.834;9.132;2023-06-14T08:10:33;97881.44;;;23.24;39.62
15694;BME280;7947;48.834;9.132;2023-06-14T08:13:35;97887.63;;;23.41;39.88
15694;BME280;7947;48.834;9.132;2023-06-14T08:16:39;97890.00;;;23.65;40.47
15694;BME280;7947;48.834;9.132;2023-06-14T08:19:43;97891.16;;;23.86;39.90
15694;BME280;7947;48.834;9.132;2023-06-14T08:22:46;97888.31;;;24.02;39.38
15694;BME280;7947;48.834;9.132;2023-06-14T08:25:49;97885.41;;;24.17;37.64
15694;BME280;7947;48.834;9.132;2023-06-14T08:28:52;97889.06;;;24.25;37.70
15694;BME280;7947;48.834;9.132;2023-06-14T08:31:56;97888.25;;;24.25;36.74
15694;BME280;7947;48.834;9.132;2023-06-14T08:35:00;97889.97;;;24.10;36.57
15694;BME280;7947;48.834;9.132;2023-06-14T08:38:06;97893.78;;;24.28;38.44
15694;BME280;7947;48.834;9.132;2023-06-14T08:41:11;97895.25;;;24.48;38.97
15694;BME280;7947;48.834;9.132;2023-06-14T08:44:15;97899.97;;;24.51;38.71
15694;BME280;7947;48.834;9.132;2023-06-14T08:47:18;97899.84;;;24.41;37.52
15694;BME280;7947;48.834;9.132;2023-06-14T08:50:24;97896.41;;;24.47;38.45
15694;BME280;7947;48.834;9.132;2023-06-14T08:53:32;97898.53;;;24.61;38.79
15694;BME280;7947;48.834;9.132;2023-06-14T08:56:40;97897.91;;;24.71;39.16
15694;BME280;7947;48.834;9.132;2023-06-14T08:59:46;97902.22;;;24.72;37.38
15694;BME280;7947;48.834;9.132;2023-06-14T09:02:54;97896.09;;;24.82;36.64
15694;BME280;7947;48.834;9.132;2023-06-14T09:06:01;97895.75;;;24.83;37.50
15694;BME280;7947;48.834;9.132;2023-06-14T09:09:05;97900.28;;;25.02;37.18
15694;BME280;7947;48.834;9.132;2023-06-14T09:12:10;97894.88;;;25.13;36.16
15694;BME280;7947;48.834;9.132;2023-06-14T09:15:14;97893.56;;;24.99;36.15
15694;BME280;7947;48.834;9.132;2023-06-14T09:18:17;97897.63;;;25.13;37.27
15694;BME280;7947;48.834;9.132;2023-06-14T09:21:23;97894.16;;;25.16;37.11
15694;BME280;7947;48.834;9.132;2023-06-14T09:24:26;97898.16;;;25.22;36.63
15694;BME280;7947;48.834;9.132;2023-06-14T09:27:29;97903.38;;;25.34;37.05
15694;BME280;7947;48.834;9.132;2023-06-14T09:30:36;97896.03;;;25.41;36.86
15694;BME280;7947;48.834;9.132;2023-06-14T09:33:41;97910.25;;;25.50;36.64
15694;BME280;7947;48.834;9.132;2023-06-14T09:36:45;97907.97;;;25.59;36.86
15694;BME280;7947;48.834;9.132;2023-06-14T09:39:49;97900.25;;;25.72;36.81
15694;BME280;7947;48.834;9.132;2023-06-14T09:42:53;97893.66;;;25.80;36.50
15694;BME280;7947;48.834;9.132;2023-06-14T09:45:56;97901.56;;;25.92;35.49
15694;BME280;7947;48.834;9.132;2023-06-14T09:49:00;97905.22;;;26.03;35.61
15694;BME280;7947;48.834;9.132;2023-06-14T09:52:07;97902.88;;;26.05;34.56
15694;BME280;7947;48.834;9.132;2023-06-14T09:55:13;97903.00;;;26.19;36.09
15694;BME280;7947;48.834;9.132;2023-06-14T09:58:17;97897.56;;;26.26;34.95
15694;BME280;7947;48.834;9.132;2023-06-14T10:01:24;97900.72;;;25.81;33.59
15694;BME280;7947;48.834;9.132;2023-06-14T10:04:30;97900.47;;;25.20;35.31
15694;BME280;7947;48.834;9.132;2023-06-14T10:07:40;97904.63;;;24.73;34.10
15694;BME280;7947;48.834;9.132;2023-06-14T10:10:43;97900.59;;;24.67;36.10
15694;BME280;7947;48.834;9.132;2023-06-14T10:13:47;97886.84;;;24.93;35.57
15694;BME280;7947;48.834;9.132;2023-06-14T10:16:58;97893.31;;;25.45;34.36
15694;BME280;7947;48.834;9.132;2023-06-14T10:20:19;97890.13;;;25.83;33.81
15694;BME280;7947;48.834;9.132;2023-06-14T10:23:26;97889.97;;;25.65;34.80
15694;BME280;7947;48.834;9.132;2023-06-14T10:26:30;97894.72;;;25.32;33.45
15694;BME280;7947;48.834;9.132;2023-06-14T10:29:33;97881.75;;;25.29;33.53
15694;BME280;7947;48.834;9.132;2023-06-14T10:33:03;97883.97;;;25.16;33.67
15694;BME280;7947;48.834;9.132;2023-06-14T10:36:11;97889.78;;;25.44;31.78
15694;BME280;7947;48.834;9.132;2023-06-14T10:39:28;97878.31;;;25.79;32.61
15694;BME280;7947;48.834;9.132;2023-06-14T10:42:32;97877.97;;;25.84;31.98
15694;BME280;7947;48.834;9.132;2023-06-14T10:45:35;97881.31;;;26.07;31.42
15694;BME280;7947;48.834;9.132;2023-06-14T10:48:40;97875.06;;;26.14;31.13
15694;BME280;7947;48.834;9.132;2023-06-14T10:51:43;97887.41;;;25.86;32.22
15694;BME280;7947;48.834;9.132;2023-06-14T10:55:13;97881.19;;;25.93;33.61
15694;BME280;7947;48.834;9.132;2023-06-14T10:58:18;97891.38;;;25.92;32.65
15694;BME280;7947;48.834;9.132;2023-06-14T11:01:31;97882.13;;;25.64;30.19
15694;BME280;7947;48.834;9.132;2023-06-14T11:04:47;97886.22;;;25.44;31.35
15694;BME280;7947;48.834;9.132;2023-06-14T11:07:58;97885.31;;;25.69;31.18
15694;BME280;7947;48.834;9.132;2023-06-14T11:11:09;97884.63;;;25.83;30.88
15694;BME280;7947;48.834;9.132;2023-06-14T11:14:12;97878.97;;;25.62;30.84
15694;BME280;7947;48.834;9.132;2023-06-14T11:17:14;97873.13;;;25.30;30.28
15694;BME280;7947;48.834;9.132;2023-06-14T11:20:18;97881.16;;;25.13;31.83
15694;BME280;7947;48.834;9.132;2023-06-14T11:23:24;97872.69;;;24.91;31.21
15694;BME280;7947;48.834;9.132;2023-06-14T11:26:30;97874.31;;;24.96;32.38
15694;BME280;7947;48.834;9.132;2023-06-14T11:29:34;97874.78;;;25.38;31.26
15694;BME280;7947;48.834;9.132;2023-06-14T11:32:38;97881.09;;;25.82;32.64
15694;BME280;7947;48.834;9.132;2023-06-14T11:35:41;97884.06;;;26.07;31.07
15694;BME280;7947;48.834;9.132;2023-06-14T11:38:44;97885.44;;;25.87;30.64
15694;BME280;7947;48.834;9.132;2023-06-14T11:41:48;97876.22;;;25.65;31.53
15694;BME280;7947;48.834;9.132;2023-06-14T11:44:51;97870.16;;;25.86;31.64
15694;BME280;7947;48.834;9.132;2023-06-14T11:48:01;97876.41;;;26.34;31.09
15694;BME280;7947;48.834;9.132;2023-06-14T11:51:04;97879.69;;;26.67;30.29
15694;BME280;7947;48.834;9.132;2023-06-14T11:54:07;97879.84;;;26.92;29.77
15694;BME280;7947;48.834;9.132;2023-06-14T11:57:12;97877.50;;;26.98;29.14
15694;BME280;7947;48.834;9.132;2023-06-14T12:00:16;97877.53;;;27.01;29.38
15694;BME280;7947;48.834;9.132;2023-06-14T12:03:22;97874.41;;;27.10;29.91
15694;BME280;7947;48.834;9.132;2023-06-14T12:06:27;97869.72;;;27.28;29.64
15694;BME280;7947;48.834;9.132;2023-06-14T12:09:35;97871.75;;;27.38;30.03
15694;BME280;7947;48.834;9.132;2023-06-14T12:12:40;97872.94;;;27.51;28.74
15694;BME280;7947;48.834;9.132;2023-06-14T12:15:43;97885.53;;;27.55;29.00
15694;BME280;7947;48.834;9.132;2023-06-14T12:18:46;97875.72;;;27.61;28.13
15694;BME280;7947;48.834;9.132;2023-06-14T12:21:49;97877.28;;;27.59;27.34
15694;BME280;7947;48.834;9.132;2023-06-14T12:24:52;97868.25;;;27.62;28.69
15694;BME280;7947;48.834;9.132;2023-06-14T12:27:57;97874.53;;;27.70;28.50
15694;BME280;7947;48.834;9.132;2023-06-14T12:31:00;97869.03;;;27.73;28.34
15694;BME280;7947;48.834;9.132;2023-06-14T12:34:03;97870.22;;;27.79;28.38
15694;BME280;7947;48.834;9.132;2023-06-14T12:37:06;97865.09;;;27.85;27.91
15694;BME280;7947;48.834;9.132;2023-06-14T12:40:10;97860.75;;;27.66;27.31
15694;BME280;7947;48.834;9.132;2023-06-14T12:43:14;97861.16;;;27.75;28.79
15694;BME280;7947;48.834;9.132;2023-06-14T12:46:20;97852.09;;;27.75;27.35
15694;BME280;7947;48.834;9.132;2023-06-14T12:49:23;97860.38;;;27.71;28.32
15694;BME280;7947;48.834;9.132;2023-06-14T12:52:26;97856.03;;;27.81;28.98
15694;BME280;7947;48.834;9.132;2023-06-14T12:55:29;97851.69;;;27.87;28.53
15694;BME280;7947;48.834;9.132;2023-06-14T12:58:34;97869.41;;;27.93;28.62
15694;BME280;7947;48.834;9.132;2023-06-14T13:01:37;97851.72;;;28.01;28.54
15694;BME280;7947;48.834;9.132;2023-06-14T13:04:40;97860.38;;;28.10;28.12
15694;BME280;7947;48.834;9.132;2023-06-14T13:07:43;97858.78;;;28.05;28.26
15694;BME280;7947;48.834;9.132;2023-06-14T13:10:46;97864.31;;;27.91;27.68
15694;BME280;7947;48.834;9.132;2023-06-14T13:13:50;97860.38;;;27.85;29.11
15694;BME280;7947;48.834;9.132;2023-06-14T13:16:53;97865.91;;;28.03;30.12
15694;BME280;7947;48.834;9.132;2023-06-14T13:19:57;97864.28;;;28.19;27.12
15694;BME280;7947;48.834;9.132;2023-06-14T13:22:59;97871.00;;;28.22;29.01
15694;BME280;7947;48.834;9.132;2023-06-14T13:26:03;97860.75;;;28.15;26.70
15694;BME280;7947;48.834;9.132;2023-06-14T13:29:07;97858.00;;;28.12;27.08
15694;BME280;7947;48.834;9.132;2023-06-14T13:32:10;97863.09;;;28.17;27.18
15694;BME280;7947;48.834;9.132;2023-06-14T13:35:13;97872.97;;;28.21;26.72
15694;BME280;7947;48.834;9.132;2023-06-14T13:38:16;97853.28;;;28.16;26.43
15694;BME280;7947;48.834;9.132;2023-06-14T13:41:19;97869.03;;;28.08;29.87
15694;BME280;7947;48.834;9.132;2023-06-14T13:44:23;97847.75;;;28.19;28.44
15694;BME280;7947;48.834;9.132;2023-06-14T13:47:26;97852.88;;;28.28;27.83
15694;BME280;7947;48.834;9.132;2023-06-14T13:50:47;97841.78;;;28.42;27.65
15694;BME280;7947;48.834;9.132;2023-06-14T13:53:50;97843.31;;;28.53;28.97
15694;BME280;7947;48.834;9.132;2023-06-14T13:57:10;97840.94;;;28.59;27.72
15694;BME280;7947;48.834;9.132;2023-06-14T14:00:33;97841.34;;;28.65;29.45
15694;BME280;7947;48.834;9.132;2023-06-14T14:03:37;97842.91;;;28.66;27.78
15694;BME280;7947;48.834;9.132;2023-06-14T14:06:39;97850.03;;;28.56;27.92
15694;BME280;7947;48.834;9.132;2023-06-14T14:10:00;97842.53;;;28.49;28.43
15694;BME280;7947;48.834;9.132;2023-06-14T14:13:02;97847.72;;;28.37;27.36
15694;BME280;7947;48.834;9.132;2023-06-14T14:16:24;97830.84;;;28.10;27.90
15694;BME280;7947;48.834;9.132;2023-06-14T14:19:45;97840.28;;;27.81;28.55
15694;BME280;7947;48.834;9.132;2023-06-14T14:22:47;97839.47;;;27.88;28.51
15694;BME280;7947;48.834;9.132;2023-06-14T14:26:07;97845.81;;;28.02;28.30
15694;BME280;7947;48.834;9.132;2023-06-14T14:29:10;97843.03;;;28.16;28.27
15694;BME280;7947;48.834;9.132;2023-06-14T14:32:14;97847.34;;;28.28;29.06
15694;BME280;7947;48.834;9.132;2023-06-14T14:35:17;97841.47;;;28.08;26.44
15694;BME280;7947;48.834;9.132;2023-06-14T14:38:20;97850.16;;;27.96;27.43
15694;BME280;7947;48.834;9.132;2023-06-14T14:41:23;97850.53;;;28.12;26.94
15694;BME280;7947;48.834;9.132;2023-06-14T14:44:26;97846.59;;;28.10;27.39
15694;BME280;7947;48.834;9.132;2023-06-14T14:47:30;97848.53;;;28.20;28.22
15694;BME280;7947;48.834;9.132;2023-06-14T14:50:33;97857.19;;;28.29;28.82
15694;BME280;7947;48.834;9.132;2023-06-14T14:53:35;97840.22;;;28.34;28.59
15694;BME280;7947;48.834;9.132;2023-06-14T14:56:38;97845.34;;;28.39;28.29
15694;BME280;7947;48.834;9.132;2023-06-14T14:59:42;97851.66;;;28.39;28.96
15694;BME280;7947;48.834;9.132;2023-06-14T15:02:46;97844.53;;;28.49;27.66
15694;BME280;7947;48.834;9.132;2023-06-14T15:05:49;97843.72;;;28.48;28.66
15694;BME280;7947;48.834;9.132;2023-06-14T15:08:51;97844.50;;;28.60;27.20
15694;BME280;7947;48.834;9.132;2023-06-14T15:11:54;97840.56;;;28.64;27.06
15694;BME280;7947;48.834;9.132;2023-06-14T15:14:57;97840.56;;;28.61;27.47
15694;BME280;7947;48.834;9.132;2023-06-14T15:18:01;97842.16;;;28.55;28.78
15694;BME280;7947;48.834;9.132;2023-06-14T15:21:04;97844.91;;;28.58;27.50
15694;BME280;7947;48.834;9.132;2023-06-14T15:24:07;97846.13;;;28.57;27.03
15694;BME280;7947;48.834;9.132;2023-06-14T15:27:11;97839.41;;;28.55;26.85
15694;BME280;7947;48.834;9.132;2023-06-14T15:30:14;97833.47;;;28.52;28.15
15694;BME280;7947;48.834;9.132;2023-06-14T15:33:19;97844.91;;;28.51;26.43
15694;BME280;7947;48.834;9.132;2023-06-14T15:36:22;97844.91;;;28.47;27.43
15694;BME280;7947;48.834;9.132;2023-06-14T15:39:25;97833.09;;;28.50;28.21
15694;BME280;7947;48.834;9.132;2023-06-14T15:42:28;97840.56;;;28.61;28.25
15694;BME280;7947;48.834;9.132;2023-06-14T15:45:31;97841.00;;;28.45;27.35
15694;BME280;7947;48.834;9.132;2023-06-14T15:48:35;97840.22;;;28.37;27.64
15694;BME280;7947;48.834;9.132;2023-06-14T15:51:38;97846.94;;;28.29;27.21
15694;BME280;7947;48.834;9.132;2023-06-14T15:54:41;97839.47;;;28.23;27.30
15694;BME280;7947;48.834;9.132;2023-06-14T15:57:43;97837.91;;;28.15;27.31
15694;BME280;7947;48.834;9.132;2023-06-14T16:00:46;97849.72;;;27.59;27.92
15694;BME280;7947;48.834;9.132;2023-06-14T16:03:50;97843.44;;;27.69;28.25
15694;BME280;7947;48.834;9.132;2023-06-14T16:06:53;97852.09;;;27.57;29.12
15694;BME280;7947;48.834;9.132;2023-06-14T16:09:56;97846.94;;;27.45;28.33
15694;BME280;7947;48.834;9.132;2023-06-14T16:12:58;97843.78;;;27.43;28.31
15694;BME280;7947;48.834;9.132;2023-06-14T16:16:01;97845.78;;;27.46;29.01
15694;BME280;7947;48.834;9.132;2023-06-14T16:19:05;97844.22;;;27.52;29.59
15694;BME280;7947;48.834;9.132;2023-06-14T16:22:08;97847.34;;;27.47;28.21
15694;BME280;7947;48.834;9.132;2023-06-14T16:25:11;97848.53;;;27.42;29.64
15694;BME280;7947;48.834;9.132;2023-06-14T16:28:13;97848.91;;;27.37;28.87
15694;BME280;7947;48.834;9.132;2023-06-14T16:31:16;97851.63;;;27.30;28.92